Time;durP1;ratioP1;P1;durP2;ratioP2;P2;SDS_P1;SDS_P2;PMS_P1;PMS_P2;Temp;Humidity;BMP_temperature;BMP_pressure;BME280_temperature;BME280_humidity;BME280_pressure;Samples;Min_cycle;Max_cycle;Signal;HPM_P1;HPM_P2
2021/11/06 00:01:28;;;;;;;;;;;12.40;99.90;;;;;;6138231;23;20052;-80
2021/11/06 00:03:53;;;;;;;;;;;12.40;99.90;;;;;;6138865;23;19939;-79
2021/11/06 00:06:19;;;;;;;;;;;12.40;99.90;;;;;;6138513;23;19916;-79
2021/11/06 00:08:44;;;;;;;;;;;12.40;99.90;;;;;;6137955;23;19935;-79
2021/11/06 00:11:10;;;;;;;;;;;12.30;99.90;;;;;;6111713;23;19905;-79
2021/11/06 00:13:36;;;;;;;;;;;12.30;99.90;;;;;;6137855;23;19924;-79
2021/11/06 00:16:01;;;;;;;;;;;12.30;99.90;;;;;;6136815;23;19909;-79
2021/11/06 00:18:27;;;;;;;;;;;12.30;99.90;;;;;;6138217;23;19905;-81
2021/11/06 00:20:53;;;;;;;;;;;12.30;99.90;;;;;;6137145;23;19913;-79
2021/11/06 00:23:19;;;;;;;;;;;12.30;99.90;;;;;;6138782;23;19920;-78
2021/11/06 00:25:45;;;;;;;;;;;12.30;99.90;;;;;;6138069;23;19912;-79
2021/11/06 00:28:10;;;;;;;;;;;12.20;99.90;;;;;;6139076;23;19947;-79
2021/11/06 00:30:36;;;;;;;;;;;12.20;99.90;;;;;;6137529;23;19905;-79
2021/11/06 00:33:02;;;;;;;;;;;12.20;99.90;;;;;;6136898;23;19909;-79
2021/11/06 00:35:28;;;;;;;;;;;12.20;99.90;;;;;;6138118;23;19932;-79
2021/11/06 00:37:53;;;;;;;;;;;12.20;99.90;;;;;;6138146;23;19912;-79
2021/11/06 00:40:19;;;;;;;;;;;12.20;99.90;;;;;;6138348;23;19909;-79
2021/11/06 00:42:45;;;;;;;;;;;12.20;99.90;;;;;;6138138;23;19947;-79
2021/11/06 00:45:12;;;;;;;;;;;12.10;99.90;;;;;;6111796;23;19913;-80
2021/11/06 00:47:38;;;;;;;;;;;12.10;99.90;;;;;;6137864;23;20250;-79
2021/11/06 00:50:05;;;;;;;;;;;12.10;99.90;;;;;;6138550;23;19912;-80
2021/11/06 00:52:31;;;;;;;;;;;12.10;99.90;;;;;;6138207;23;19908;-80
2021/11/06 00:54:56;;;;;;;;;;;12.10;99.90;;;;;;6138309;23;19952;-79
2021/11/06 00:57:22;;;;;;;;;;;12.00;99.90;;;;;;6138024;23;19905;-79
2021/11/06 00:59:48;;;;;;;;;;;12.00;99.90;;;;;;6136371;23;19974;-79
2021/11/06 01:02:13;;;;;;;;;;;12.00;99.90;;;;;;6137823;23;19905;-80
2021/11/06 01:04:39;;;;;;;;;;;12.00;99.90;;;;;;6136890;23;19936;-79
2021/11/06 01:07:05;;;;;;;;;;;12.00;99.90;;;;;;6136950;23;19929;-79
2021/11/06 01:09:31;;;;;;;;;;;12.00;99.90;;;;;;6137317;23;19976;-80
2021/11/06 01:11:56;;;;;;;;;;;12.00;99.90;;;;;;6136932;23;19905;-79
2021/11/06 01:14:23;;;;;;;;;;;12.00;99.90;;;;;;6136637;23;19920;-79
2021/11/06 01:16:49;;;;;;;;;;;12.00;99.90;;;;;;6137272;23;19909;-81
2021/11/06 01:19:14;;;;;;;;;;;12.00;99.90;;;;;;6137850;23;19956;-79
2021/11/06 01:21:40;;;;;;;;;;;12.00;99.90;;;;;;6113581;23;19905;-79
2021/11/06 01:24:06;;;;;;;;;;;12.00;99.90;;;;;;6138501;23;19916;-80
2021/11/06 01:26:32;;;;;;;;;;;12.00;99.90;;;;;;6138702;23;19905;-80
2021/11/06 01:28:58;;;;;;;;;;;12.00;99.90;;;;;;6112525;23;19905;-80
2021/11/06 01:31:23;;;;;;;;;;;12.00;99.90;;;;;;6138322;23;19912;-80
2021/11/06 01:33:49;;;;;;;;;;;12.10;99.90;;;;;;6139600;23;19988;-80
2021/11/06 01:36:16;;;;;;;;;;;12.00;99.90;;;;;;6137515;23;19906;-79
2021/11/06 01:38:43;;;;;;;;;;;12.00;99.90;;;;;;6137424;23;19905;-79
2021/11/06 01:41:09;;;;;;;;;;;12.00;99.90;;;;;;6137600;23;19951;-79
2021/11/06 01:43:35;;;;;;;;;;;12.10;99.90;;;;;;6137673;23;19912;-80
2021/11/06 01:46:02;;;;;;;;;;;12.10;99.90;;;;;;6137701;23;19932;-79
2021/11/06 01:48:28;;;;;;;;;;;12.10;99.90;;;;;;6137820;23;19916;-79
2021/11/06 01:50:54;;;;;;;;;;;12.00;99.90;;;;;;6140072;23;19905;-79
2021/11/06 01:53:20;;;;;;;;;;;12.00;99.90;;;;;;6140804;23;19936;-79
2021/11/06 01:55:46;;;;;;;;;;;12.10;99.90;;;;;;6139873;23;19905;-78
2021/11/06 01:58:12;;;;;;;;;;;12.10;99.90;;;;;;6139533;23;19976;-79
2021/11/06 02:00:38;;;;;;;;;;;12.00;99.90;;;;;;6112751;23;19984;-79
2021/11/06 02:03:04;;;;;;;;;;;12.00;99.90;;;;;;6133268;23;19912;-79
2021/11/06 02:05:30;;;;;;;;;;;12.00;99.90;;;;;;6110879;23;19988;-79
2021/11/06 02:07:56;;;;;;;;;;;12.10;99.90;;;;;;6137836;23;19988;-80
2021/11/06 02:10:21;;;;;;;;;;;12.00;99.90;;;;;;6137155;23;19912;-79
2021/11/06 02:12:49;;;;;;;;;;;12.00;99.90;;;;;;6137021;23;19912;-79
2021/11/06 02:15:15;;;;;;;;;;;12.00;99.90;;;;;;6136673;23;19905;-79
2021/11/06 02:17:42;;;;;;;;;;;12.00;99.90;;;;;;6136852;23;19911;-79
2021/11/06 02:20:08;;;;;;;;;;;12.00;99.90;;;;;;6136870;23;19919;-79
2021/11/06 02:22:34;;;;;;;;;;;12.00;99.90;;;;;;6112587;23;19936;-79
2021/11/06 02:25:00;;;;;;;;;;;12.00;99.90;;;;;;6137868;23;19905;-79
2021/11/06 02:27:26;;;;;;;;;;;12.00;99.90;;;;;;6137673;23;19975;-79
2021/11/06 02:29:51;;;;;;;;;;;11.90;99.90;;;;;;6136902;23;19905;-79
2021/11/06 02:32:17;;;;;;;;;;;12.00;99.90;;;;;;6138027;23;19916;-80
2021/11/06 02:34:43;;;;;;;;;;;11.90;99.90;;;;;;6137002;23;19904;-80
2021/11/06 02:37:09;;;;;;;;;;;11.90;99.90;;;;;;6136880;23;19905;-79
2021/11/06 02:39:37;;;;;;;;;;;12.00;99.90;;;;;;6137445;23;19924;-79
2021/11/06 02:42:05;;;;;;;;;;;12.00;99.90;;;;;;6137768;23;19912;-79
2021/11/06 02:44:31;;;;;;;;;;;12.00;99.90;;;;;;6110315;23;19951;-79
2021/11/06 02:46:56;;;;;;;;;;;12.00;99.90;;;;;;6137011;23;19920;-79
2021/11/06 02:49:22;;;;;;;;;;;12.00;99.90;;;;;;6135508;23;19912;-79
2021/11/06 02:51:48;;;;;;;;;;;12.00;99.90;;;;;;6135740;23;19908;-79
2021/11/06 02:54:14;;;;;;;;;;;12.00;99.90;;;;;;6135693;23;19904;-79
2021/11/06 02:56:40;;;;;;;;;;;12.00;99.90;;;;;;6109601;23;19989;-79
2021/11/06 02:59:05;;;;;;;;;;;12.00;99.90;;;;;;6134956;23;19908;-78
2021/11/06 03:01:31;;;;;;;;;;;12.00;99.90;;;;;;6135236;23;19909;-79
2021/11/06 03:03:57;;;;;;;;;;;12.00;99.90;;;;;;6135385;23;19905;-79
2021/11/06 03:06:23;;;;;;;;;;;12.00;99.90;;;;;;6134911;23;19912;-79
2021/11/06 03:08:48;;;;;;;;;;;11.90;99.90;;;;;;6134209;23;19967;-80
2021/11/06 03:11:14;;;;;;;;;;;12.00;99.90;;;;;;6136940;23;20366;-79
2021/11/06 03:13:41;;;;;;;;;;;12.00;99.90;;;;;;6137432;23;19905;-79
2021/11/06 03:16:07;;;;;;;;;;;12.00;99.90;;;;;;6136882;23;19928;-79
2021/11/06 03:18:34;;;;;;;;;;;12.00;99.90;;;;;;6138395;23;20238;-79
2021/11/06 03:20:59;;;;;;;;;;;12.00;99.90;;;;;;6135854;23;20400;-79
2021/11/06 03:23:27;;;;;;;;;;;12.00;99.90;;;;;;6137530;23;19905;-79
2021/11/06 03:25:56;;;;;;;;;;;12.10;99.90;;;;;;6137000;23;19953;-79
2021/11/06 03:28:22;;;;;;;;;;;12.00;99.90;;;;;;6137294;23;20317;-79
2021/11/06 03:30:48;;;;;;;;;;;12.00;99.90;;;;;;6136191;23;19915;-79
2021/11/06 03:33:14;;;;;;;;;;;12.00;99.90;;;;;;6136365;23;19992;-82
2021/11/06 03:35:40;;;;;;;;;;;12.00;99.90;;;;;;6136608;23;19905;-79
2021/11/06 03:38:06;;;;;;;;;;;12.00;99.90;;;;;;6135719;23;20250;-79
2021/11/06 03:40:32;;;;;;;;;;;12.00;99.90;;;;;;6137569;23;19916;-81
2021/11/06 03:42:57;;;;;;;;;;;12.00;99.90;;;;;;6137743;23;19905;-80
2021/11/06 03:45:23;;;;;;;;;;;12.00;99.90;;;;;;6136093;23;19929;-79
2021/11/06 03:47:49;;;;;;;;;;;12.00;99.90;;;;;;6136580;23;20042;-81
2021/11/06 03:50:14;;;;;;;;;;;11.90;99.90;;;;;;6133031;23;19926;-79
2021/11/06 03:52:40;;;;;;;;;;;11.90;99.90;;;;;;6133406;23;19905;-80
2021/11/06 03:55:07;;;;;;;;;;;11.90;99.90;;;;;;6134760;23;19987;-79
2021/11/06 03:57:33;;;;;;;;;;;11.90;99.90;;;;;;6137525;23;20245;-79
2021/11/06 03:59:58;;;;;;;;;;;11.90;99.90;;;;;;6135499;23;19941;-80
2021/11/06 04:02:24;;;;;;;;;;;11.90;99.90;;;;;;6135554;23;19941;-79
2021/11/06 04:04:50;;;;;;;;;;;11.90;99.90;;;;;;6131938;23;19904;-79
2021/11/06 04:07:15;;;;;;;;;;;11.90;99.90;;;;;;6133033;23;19912;-79
2021/11/06 04:09:41;;;;;;;;;;;11.80;99.90;;;;;;6135727;23;20326;-80
2021/11/06 04:12:07;;;;;;;;;;;11.90;99.90;;;;;;6135145;23;20348;-80
2021/11/06 04:14:32;;;;;;;;;;;11.80;99.90;;;;;;6132745;23;19917;-80
2021/11/06 04:16:59;;;;;;;;;;;11.90;99.90;;;;;;6131979;23;19919;-79
2021/11/06 04:19:24;;;;;;;;;;;11.80;99.90;;;;;;6105376;23;19963;-78
2021/11/06 04:21:50;;;;;;;;;;;11.80;99.90;;;;;;6130183;23;19909;-79
2021/11/06 04:24:16;;;;;;;;;;;11.80;99.90;;;;;;6132418;23;19910;-79
2021/11/06 04:26:42;;;;;;;;;;;11.80;99.90;;;;;;6132840;23;19932;-79
2021/11/06 04:29:07;;;;;;;;;;;11.80;99.90;;;;;;6136980;23;19905;-79
2021/11/06 04:31:33;;;;;;;;;;;11.80;99.90;;;;;;6135962;23;20318;-79
2021/11/06 04:34:00;;;;;;;;;;;11.80;99.90;;;;;;6111616;23;19912;-79
2021/11/06 04:36:27;;;;;;;;;;;11.80;99.90;;;;;;6136419;23;19905;-79
2021/11/06 04:38:52;;;;;;;;;;;11.80;99.90;;;;;;6135254;23;19916;-79
2021/11/06 04:41:18;;;;;;;;;;;11.80;99.90;;;;;;6132447;23;19913;-80
2021/11/06 04:43:44;;;;;;;;;;;11.80;99.90;;;;;;6133515;23;20341;-79
2021/11/06 04:46:10;;;;;;;;;;;11.80;99.90;;;;;;6133696;23;20397;-79
2021/11/06 04:48:35;;;;;;;;;;;11.80;99.90;;;;;;6135469;23;19963;-80
2021/11/06 04:51:01;;;;;;;;;;;11.80;99.90;;;;;;6133252;23;19952;-79
2021/11/06 04:53:27;;;;;;;;;;;11.80;99.90;;;;;;6134179;23;19977;-79
2021/11/06 04:55:52;;;;;;;;;;;11.80;99.90;;;;;;6131567;23;19916;-79
2021/11/06 04:58:18;;;;;;;;;;;11.80;99.90;;;;;;6108112;23;19909;-79
2021/11/06 05:00:44;;;;;;;;;;;11.80;99.90;;;;;;6134372;23;19952;-79
2021/11/06 05:03:13;;;;;;;;;;;11.80;99.90;;;;;;6108013;23;19905;-81
2021/11/06 05:05:39;;;;;;;;;;;11.90;99.90;;;;;;6131130;23;19916;-80
2021/11/06 05:08:05;;;;;;;;;;;11.80;99.90;;;;;;6134123;23;19905;-80
2021/11/06 05:10:31;;;;;;;;;;;11.80;99.90;;;;;;6134916;23;19928;-80
2021/11/06 05:12:57;;;;;;;;;;;11.80;99.90;;;;;;6107335;23;19912;-80
2021/11/06 05:15:22;;;;;;;;;;;11.80;99.90;;;;;;6132569;23;19905;-79
2021/11/06 05:17:48;;;;;;;;;;;11.80;99.90;;;;;;6133149;23;19939;-79
2021/11/06 05:20:16;;;;;;;;;;;11.80;99.90;;;;;;6108384;23;19916;-79
2021/11/06 05:22:42;;;;;;;;;;;11.90;99.90;;;;;;6109390;23;19913;-79
2021/11/06 05:25:08;;;;;;;;;;;11.90;99.90;;;;;;6134067;23;20038;-80
2021/11/06 05:27:34;;;;;;;;;;;11.90;99.90;;;;;;6133965;23;19905;-79
2021/11/06 05:30:00;;;;;;;;;;;11.90;99.90;;;;;;6109141;23;19943;-79
2021/11/06 05:32:26;;;;;;;;;;;11.90;99.90;;;;;;6110203;23;19905;-79
2021/11/06 05:34:52;;;;;;;;;;;11.90;99.90;;;;;;6110084;23;19948;-82
2021/11/06 05:37:17;;;;;;;;;;;11.90;99.90;;;;;;6134654;23;19912;-79
2021/11/06 05:39:43;;;;;;;;;;;11.90;99.90;;;;;;6135013;23;19956;-79
2021/11/06 05:42:09;;;;;;;;;;;12.00;99.90;;;;;;6134592;23;19912;-79
2021/11/06 05:44:35;;;;;;;;;;;12.00;99.90;;;;;;6135426;23;19929;-79
2021/11/06 05:47:01;;;;;;;;;;;12.00;99.90;;;;;;6133344;23;19905;-79
2021/11/06 05:49:26;;;;;;;;;;;12.00;99.90;;;;;;6134712;23;19959;-79
2021/11/06 05:51:52;;;;;;;;;;;12.00;99.90;;;;;;6133520;23;19905;-79
2021/11/06 05:54:18;;;;;;;;;;;12.00;99.90;;;;;;6134783;23;19909;-79
2021/11/06 05:56:44;;;;;;;;;;;12.00;99.90;;;;;;6133940;23;19943;-79
2021/11/06 05:59:09;;;;;;;;;;;12.00;99.90;;;;;;6134850;23;19905;-79
2021/11/06 06:01:35;;;;;;;;;;;12.10;99.90;;;;;;6133237;23;19967;-80
2021/11/06 06:04:01;;;;;;;;;;;12.00;99.90;;;;;;6134056;23;20338;-79
2021/11/06 06:06:27;;;;;;;;;;;12.00;99.90;;;;;;6133570;23;19905;-80
2021/11/06 06:08:53;;;;;;;;;;;12.00;99.90;;;;;;6135557;23;19916;-79
2021/11/06 06:11:19;;;;;;;;;;;12.10;99.90;;;;;;6111473;23;19908;-81
2021/11/06 06:13:45;;;;;;;;;;;12.10;99.90;;;;;;6109881;23;19956;-79
2021/11/06 06:16:10;;;;;;;;;;;12.10;99.90;;;;;;6134107;23;19909;-79
2021/11/06 06:18:36;;;;;;;;;;;12.10;99.90;;;;;;6136233;23;19939;-80
2021/11/06 06:21:02;;;;;;;;;;;12.10;99.90;;;;;;6110852;23;19974;-79
2021/11/06 06:23:27;;;;;;;;;;;12.10;99.90;;;;;;6137971;23;19905;-79
2021/11/06 06:25:53;;;;;;;;;;;12.10;99.90;;;;;;6136627;23;19949;-80
2021/11/06 06:28:19;;;;;;;;;;;12.10;99.90;;;;;;6138082;23;19928;-79
2021/11/06 06:30:45;;;;;;;;;;;12.10;99.90;;;;;;6113556;23;19909;-79
2021/11/06 06:33:11;;;;;;;;;;;12.10;99.90;;;;;;6137343;23;19905;-80
2021/11/06 06:35:36;;;;;;;;;;;12.10;99.90;;;;;;6137533;23;20250;-79
2021/11/06 06:38:02;;;;;;;;;;;12.10;99.90;;;;;;6137098;23;20440;-80
2021/11/06 06:40:28;;;;;;;;;;;12.20;99.90;;;;;;6136503;23;19947;-79
2021/11/06 06:42:54;;;;;;;;;;;12.20;99.90;;;;;;6109834;23;19905;-79
2021/11/06 06:45:19;;;;;;;;;;;12.20;99.90;;;;;;6105545;23;19963;-79
2021/11/06 06:47:45;;;;;;;;;;;12.10;99.90;;;;;;6106473;23;19911;-79
2021/11/06 06:50:12;;;;;;;;;;;12.20;99.90;;;;;;6130565;23;19912;-79
2021/11/06 06:52:39;;;;;;;;;;;12.20;99.90;;;;;;6108891;23;19905;-79
2021/11/06 06:55:05;;;;;;;;;;;12.10;99.90;;;;;;6134708;23;20154;-79
2021/11/06 06:57:31;;;;;;;;;;;12.20;99.90;;;;;;6134240;23;19912;-80
2021/11/06 06:59:56;;;;;;;;;;;12.20;99.90;;;;;;6133029;23;19909;-79
2021/11/06 07:02:22;;;;;;;;;;;12.20;99.90;;;;;;6133594;23;19980;-79
2021/11/06 07:04:48;;;;;;;;;;;12.20;99.90;;;;;;6128358;23;19920;-77
2021/11/06 07:07:13;;;;;;;;;;;12.10;99.90;;;;;;6127030;23;19905;-77
2021/11/06 07:09:39;;;;;;;;;;;12.20;99.90;;;;;;6128918;23;19984;-77
2021/11/06 07:12:06;;;;;;;;;;;12.20;99.90;;;;;;6128091;23;19912;-78
2021/11/06 07:14:31;;;;;;;;;;;12.20;99.90;;;;;;6133833;23;19905;-77
2021/11/06 07:16:57;;;;;;;;;;;12.10;99.90;;;;;;6128085;23;20224;-77
2021/11/06 07:19:23;;;;;;;;;;;12.10;99.90;;;;;;6127724;23;19905;-77
2021/11/06 07:21:49;;;;;;;;;;;12.10;99.90;;;;;;6126483;23;19908;-77
2021/11/06 07:24:14;;;;;;;;;;;12.10;99.90;;;;;;6130077;23;20215;-77
2021/11/06 07:26:40;;;;;;;;;;;12.10;99.90;;;;;;6127833;23;19905;-77
2021/11/06 07:29:06;;;;;;;;;;;12.20;99.90;;;;;;6127529;23;19924;-77
2021/11/06 07:31:32;;;;;;;;;;;12.20;99.90;;;;;;6127506;23;19945;-77
2021/11/06 07:33:57;;;;;;;;;;;12.20;99.90;;;;;;6127048;23;19905;-77
2021/11/06 07:36:24;;;;;;;;;;;12.20;99.90;;;;;;6129803;23;19912;-77
2021/11/06 07:38:50;;;;;;;;;;;12.20;99.90;;;;;;6129686;23;19905;-77
2021/11/06 07:41:16;;;;;;;;;;;12.30;99.90;;;;;;6129962;23;20249;-77
2021/11/06 07:43:42;;;;;;;;;;;12.30;99.90;;;;;;6129204;23;19912;-77
2021/11/06 07:46:08;;;;;;;;;;;12.30;99.90;;;;;;6127268;23;19912;-77
2021/11/06 07:48:33;;;;;;;;;;;12.20;99.90;;;;;;6127892;23;19905;-77
2021/11/06 07:50:59;;;;;;;;;;;12.20;99.90;;;;;;6127676;23;20405;-77
2021/11/06 07:53:25;;;;;;;;;;;12.20;99.90;;;;;;6127406;23;20337;-77
2021/11/06 07:55:50;;;;;;;;;;;12.20;99.90;;;;;;6127274;23;19908;-77
2021/11/06 07:58:16;;;;;;;;;;;12.20;99.90;;;;;;6126940;23;19905;-77
2021/11/06 08:00:42;;;;;;;;;;;12.10;99.90;;;;;;6127587;23;19931;-76
2021/11/06 08:03:08;;;;;;;;;;;12.20;99.90;;;;;;6126142;23;19905;-77
2021/11/06 08:05:34;;;;;;;;;;;12.20;99.90;;;;;;6125443;23;19952;-78
2021/11/06 08:08:00;;;;;;;;;;;12.30;99.90;;;;;;6127107;23;19905;-78
2021/11/06 08:10:27;;;;;;;;;;;12.30;99.90;;;;;;6127522;23;19904;-78
2021/11/06 08:12:53;;;;;;;;;;;12.40;99.90;;;;;;6127478;23;19913;-78
2021/11/06 08:15:19;;;;;;;;;;;12.40;99.90;;;;;;6124160;23;19905;-78
2021/11/06 08:17:45;;;;;;;;;;;12.40;99.90;;;;;;6126992;23;20377;-78
2021/11/06 08:20:10;;;;;;;;;;;12.50;99.90;;;;;;6100295;23;20336;-78
2021/11/06 08:22:37;;;;;;;;;;;12.60;99.90;;;;;;6126219;23;19916;-82
2021/11/06 08:25:04;;;;;;;;;;;12.60;99.90;;;;;;6132194;23;19924;-78
2021/11/06 08:27:31;;;;;;;;;;;12.70;99.90;;;;;;6134090;23;19909;-77
2021/11/06 08:29:56;;;;;;;;;;;12.70;99.90;;;;;;6107641;23;19905;-77
2021/11/06 08:32:22;;;;;;;;;;;12.80;99.90;;;;;;6133270;23;19916;-77
2021/11/06 08:34:47;;;;;;;;;;;12.90;99.90;;;;;;6132449;23;19975;-77
2021/11/06 08:37:13;;;;;;;;;;;12.70;99.90;;;;;;6127372;23;20235;-77
2021/11/06 08:39:39;;;;;;;;;;;12.80;99.90;;;;;;6127422;23;20356;-78
2021/11/06 08:42:04;;;;;;;;;;;12.90;99.90;;;;;;6126321;23;20336;-78
2021/11/06 08:44:30;;;;;;;;;;;13.00;99.90;;;;;;6125004;23;19936;-77
2021/11/06 08:46:56;;;;;;;;;;;13.00;99.90;;;;;;6126421;23;20322;-77
2021/11/06 08:49:22;;;;;;;;;;;13.10;99.90;;;;;;6136538;23;19905;-77
2021/11/06 08:51:49;;;;;;;;;;;13.00;99.90;;;;;;6137045;23;19953;-77
2021/11/06 08:54:16;;;;;;;;;;;13.00;99.90;;;;;;6112090;23;19909;-77
2021/11/06 08:56:42;;;;;;;;;;;12.90;99.90;;;;;;6132464;23;20022;-74
2021/11/06 08:59:07;;;;;;;;;;;13.00;99.90;;;;;;6127050;23;19932;-75
2021/11/06 09:01:33;;;;;;;;;;;13.10;99.90;;;;;;6124975;23;20245;-75
2021/11/06 09:03:59;;;;;;;;;;;13.00;99.90;;;;;;6123109;23;19920;-75
2021/11/06 09:06:25;;;;;;;;;;;13.10;99.90;;;;;;6126358;23;19948;-75
2021/11/06 09:08:51;;;;;;;;;;;13.10;99.90;;;;;;6134294;23;20000;-76
2021/11/06 09:11:17;;;;;;;;;;;13.10;99.90;;;;;;6139025;23;19917;-77
2021/11/06 09:13:50;;;;;;;;;;;13.10;99.90;;;;;;6137816;23;19905;-79
2021/11/06 09:16:16;;;;;;;;;;;13.10;99.90;;;;;;6134603;23;19928;-76
2021/11/06 09:18:42;;;;;;;;;;;13.20;99.90;;;;;;6133339;23;19928;-77
2021/11/06 09:21:09;;;;;;;;;;;13.20;99.90;;;;;;6127296;23;19956;-78
2021/11/06 09:23:35;;;;;;;;;;;13.20;99.90;;;;;;6126585;23;19912;-76
2021/11/06 09:26:01;;;;;;;;;;;13.10;99.90;;;;;;6126914;23;19916;-76
2021/11/06 09:28:27;;;;;;;;;;;13.20;99.90;;;;;;6127640;23;19904;-77
2021/11/06 09:30:54;;;;;;;;;;;13.30;99.90;;;;;;6127712;23;20322;-77
2021/11/06 09:33:19;;;;;;;;;;;13.20;99.90;;;;;;6101573;23;19928;-77
2021/11/06 09:35:45;;;;;;;;;;;13.20;99.90;;;;;;6126118;23;20330;-76
2021/11/06 09:38:11;;;;;;;;;;;13.20;99.90;;;;;;6126043;23;20230;-79
2021/11/06 09:40:37;;;;;;;;;;;13.20;99.90;;;;;;6127352;23;19935;-76
2021/11/06 09:43:03;;;;;;;;;;;13.30;99.90;;;;;;6127367;23;19905;-77
2021/11/06 09:45:29;;;;;;;;;;;13.40;99.90;;;;;;6100802;23;20302;-76
2021/11/06 09:47:55;;;;;;;;;;;13.50;99.90;;;;;;6128641;23;19928;-77
2021/11/06 09:50:22;;;;;;;;;;;13.50;99.90;;;;;;6127911;23;19905;-75
2021/11/06 09:52:48;;;;;;;;;;;13.50;99.90;;;;;;6101117;23;19987;-76
2021/11/06 09:55:21;;;;;;;;;;;13.50;99.90;;;;;;6127071;23;19905;-76
2021/11/06 09:57:47;;;;;;;;;;;13.50;99.90;;;;;;6100611;23;19905;-76
2021/11/06 10:00:15;;;;;;;;;;;13.60;99.90;;;;;;6126081;23;20289;-77
2021/11/06 10:02:42;;;;;;;;;;;13.50;99.90;;;;;;6098406;23;19915;-76
2021/11/06 10:05:08;;;;;;;;;;;13.50;99.90;;;;;;6125674;23;19905;-75
2021/11/06 10:07:34;;;;;;;;;;;13.60;99.90;;;;;;6126700;23;19933;-76
2021/11/06 10:10:05;;;;;;;;;;;13.70;99.90;;;;;;6128116;23;19905;-76
2021/11/06 10:12:45;;;;;;;;;;;13.70;99.90;;;;;;6127686;23;19905;-75
2021/11/06 10:15:11;;;;;;;;;;;13.60;99.90;;;;;;6128772;23;19912;-75
2021/11/06 10:17:37;;;;;;;;;;;13.70;99.90;;;;;;6101965;23;19912;-75
2021/11/06 10:20:21;;;;;;;;;;;13.70;99.90;;;;;;6127968;23;19909;-75
2021/11/06 10:22:47;;;;;;;;;;;13.70;99.90;;;;;;6128646;23;19905;-75
2021/11/06 10:25:14;;;;;;;;;;;13.70;99.90;;;;;;6128576;23;19917;-75
2021/11/06 10:27:42;;;;;;;;;;;13.60;99.90;;;;;;6101308;23;19928;-77
2021/11/06 10:30:09;;;;;;;;;;;13.60;99.90;;;;;;6128280;23;19947;-74
2021/11/06 10:32:35;;;;;;;;;;;13.60;99.90;;;;;;6128304;23;19905;-75
2021/11/06 10:35:17;;;;;;;;;;;13.70;99.90;;;;;;6102135;23;19909;-74
2021/11/06 10:37:44;;;;;;;;;;;13.80;99.90;;;;;;6127680;23;20324;-76
2021/11/06 10:40:10;;;;;;;;;;;13.70;99.90;;;;;;6127797;23;19909;-77
2021/11/06 10:42:52;;;;;;;;;;;13.60;99.90;;;;;;6128685;23;20329;-75
2021/11/06 10:45:21;;;;;;;;;;;13.60;99.90;;;;;;6129015;23;19921;-75
2021/11/06 10:48:06;;;;;;;;;;;13.70;99.90;;;;;;6129355;23;19908;-76
2021/11/06 10:50:50;;;;;;;;;;;13.70;99.90;;;;;;6128829;23;20087;-76
2021/11/06 10:53:34;;;;;;;;;;;13.70;99.90;;;;;;6128583;23;19916;-76
2021/11/06 10:56:01;;;;;;;;;;;13.90;99.90;;;;;;6127744;23;20333;-78
2021/11/06 10:58:32;;;;;;;;;;;13.80;99.90;;;;;;6102447;23;19905;-75
2021/11/06 11:00:59;;;;;;;;;;;13.90;99.90;;;;;;6127493;23;19963;-75
2021/11/06 11:03:29;;;;;;;;;;;13.80;99.90;;;;;;6128500;23;20234;-77
2021/11/06 11:05:56;;;;;;;;;;;13.80;99.90;;;;;;6128485;23;19983;-76
2021/11/06 11:08:22;;;;;;;;;;;13.80;99.90;;;;;;6127167;23;19912;-76
2021/11/06 11:10:48;;;;;;;;;;;13.80;99.90;;;;;;6127880;23;19905;-76
2021/11/06 11:13:17;;;;;;;;;;;13.80;99.90;;;;;;6128101;23;19905;-76
2021/11/06 11:15:44;;;;;;;;;;;13.80;99.90;;;;;;6130113;23;19928;-76
2021/11/06 11:18:29;;;;;;;;;;;13.90;99.90;;;;;;6128635;23;19905;-76
2021/11/06 11:21:06;;;;;;;;;;;13.80;99.90;;;;;;6128136;23;20343;-77
2021/11/06 11:23:32;;;;;;;;;;;13.90;99.90;;;;;;6128031;23;20222;-76
2021/11/06 11:25:58;;;;;;;;;;;13.90;99.90;;;;;;6128275;23;19925;-77
2021/11/06 11:28:24;;;;;;;;;;;13.90;99.90;;;;;;6128559;23;19905;-77
2021/11/06 11:30:50;;;;;;;;;;;13.90;99.90;;;;;;6128510;23;19907;-78
2021/11/06 11:33:16;;;;;;;;;;;14.00;99.90;;;;;;6128388;23;19905;-76
2021/11/06 11:35:42;;;;;;;;;;;13.90;99.90;;;;;;6127752;23;19945;-79
2021/11/06 11:38:08;;;;;;;;;;;14.00;99.90;;;;;;6126761;23;19909;-77
2021/11/06 11:40:36;;;;;;;;;;;14.20;99.90;;;;;;6127144;23;19959;-76
2021/11/06 11:43:20;;;;;;;;;;;14.10;99.90;;;;;;6128200;23;20248;-77
2021/11/06 11:45:50;;;;;;;;;;;14.10;99.90;;;;;;6128681;23;19913;-75
2021/11/06 11:48:20;;;;;;;;;;;14.10;99.90;;;;;;6131860;23;19948;-76
2021/11/06 11:50:47;;;;;;;;;;;14.10;99.90;;;;;;6104036;23;19909;-76
2021/11/06 11:53:27;;;;;;;;;;;14.00;99.90;;;;;;6128048;23;19905;-77
2021/11/06 11:55:55;;;;;;;;;;;14.10;99.90;;;;;;6128376;23;19932;-78
2021/11/06 11:58:26;;;;;;;;;;;14.10;99.90;;;;;;6102509;23;19905;-77
2021/11/06 12:00:59;;;;;;;;;;;14.10;99.90;;;;;;6128383;23;19909;-78
2021/11/06 12:03:26;;;;;;;;;;;14.10;99.90;;;;;;6128623;23;19927;-81
2021/11/06 12:05:52;;;;;;;;;;;14.20;99.90;;;;;;6128825;23;19984;-78
2021/11/06 12:08:20;;;;;;;;;;;14.20;99.90;;;;;;6129014;23;19905;-77
2021/11/06 12:10:57;;;;;;;;;;;14.20;99.90;;;;;;6129102;23;19916;-78
2021/11/06 12:13:26;;;;;;;;;;;14.20;99.90;;;;;;6129815;23;19912;-76
2021/11/06 12:15:55;;;;;;;;;;;14.10;99.90;;;;;;6128251;23;19905;-76
2021/11/06 12:18:50;;;;;;;;;;;14.10;99.90;;;;;;6127896;23;19905;-77
2021/11/06 12:21:16;;;;;;;;;;;14.20;99.90;;;;;;6124721;23;19909;-76
2021/11/06 12:23:43;;;;;;;;;;;14.20;99.90;;;;;;6128277;23;19913;-77
2021/11/06 12:26:16;;;;;;;;;;;14.30;99.90;;;;;;6130106;23;19913;-76
2021/11/06 12:28:46;;;;;;;;;;;14.30;99.90;;;;;;6127742;23;19919;-78
2021/11/06 12:31:25;;;;;;;;;;;14.30;99.90;;;;;;6127075;23;19984;-77
2021/11/06 12:33:51;;;;;;;;;;;14.20;99.90;;;;;;6127885;23;19905;-77
2021/11/06 12:36:20;;;;;;;;;;;14.20;99.90;;;;;;6127527;23;19968;-77
2021/11/06 12:38:46;;;;;;;;;;;14.10;99.90;;;;;;6126709;23;19905;-76
2021/11/06 12:41:12;;;;;;;;;;;14.10;99.90;;;;;;6127624;23;19924;-76
2021/11/06 12:43:51;;;;;;;;;;;14.20;99.90;;;;;;6128002;23;19905;-77
2021/11/06 12:46:23;;;;;;;;;;;14.40;99.90;;;;;;6127751;23;19905;-77
2021/11/06 12:48:49;;;;;;;;;;;14.40;99.90;;;;;;6127741;23;19912;-76
2021/11/06 12:51:20;;;;;;;;;;;14.20;99.90;;;;;;6127668;23;19909;-77
2021/11/06 12:53:48;;;;;;;;;;;14.20;99.90;;;;;;6128397;23;19905;-77
2021/11/06 12:56:13;;;;;;;;;;;14.20;99.90;;;;;;6127930;23;19905;-78
2021/11/06 12:58:40;;;;;;;;;;;14.10;99.90;;;;;;6128540;23;19916;-77
2021/11/06 13:01:15;;;;;;;;;;;14.20;99.90;;;;;;6128028;23;19916;-77
2021/11/06 13:03:41;;;;;;;;;;;14.10;99.90;;;;;;6127114;23;19959;-77
2021/11/06 13:06:17;;;;;;;;;;;14.00;99.90;;;;;;6100288;23;19987;-77
2021/11/06 13:09:02;;;;;;;;;;;14.00;99.90;;;;;;6100445;23;19905;-77
2021/11/06 13:11:46;;;;;;;;;;;14.00;99.90;;;;;;6126358;23;19983;-78
2021/11/06 13:14:30;;;;;;;;;;;14.20;99.90;;;;;;6125627;23;19912;-77
2021/11/06 13:16:59;;;;;;;;;;;14.20;99.90;;;;;;6125586;23;19912;-77
2021/11/06 13:19:40;;;;;;;;;;;14.20;99.90;;;;;;6102658;23;20330;-77
2021/11/06 13:22:06;;;;;;;;;;;14.20;99.90;;;;;;6126481;23;19915;-77
2021/11/06 13:24:47;;;;;;;;;;;14.30;99.90;;;;;;6128468;23;19936;-77
2021/11/06 13:27:31;;;;;;;;;;;14.30;99.90;;;;;;6128533;23;19950;-78
2021/11/06 13:30:15;;;;;;;;;;;14.20;99.90;;;;;;6128203;23;19912;-80
2021/11/06 13:33:00;;;;;;;;;;;14.00;99.90;;;;;;6129520;23;19909;-77
2021/11/06 13:35:27;;;;;;;;;;;14.00;99.90;;;;;;6127121;23;19905;-77
2021/11/06 13:38:13;;;;;;;;;;;14.00;99.90;;;;;;6101551;23;19956;-77
2021/11/06 13:40:49;;;;;;;;;;;14.00;99.90;;;;;;6130484;23;19968;-76
2021/11/06 13:43:30;;;;;;;;;;;14.00;99.90;;;;;;6127733;23;19936;-77
2021/11/06 13:46:05;;;;;;;;;;;14.20;99.90;;;;;;6100921;23;20261;-77
2021/11/06 13:48:34;;;;;;;;;;;14.20;99.90;;;;;;6137376;23;19905;-78
2021/11/06 13:51:29;;;;;;;;;;;14.20;99.90;;;;;;6133259;23;19912;-77
2021/11/06 13:53:54;;;;;;;;;;;14.10;99.90;;;;;;6090972;23;20273;-80
2021/11/06 13:56:25;;;;;;;;;;;14.00;99.90;;;;;;6133016;23;19955;-79
2021/11/06 13:58:52;;;;;;;;;;;14.00;99.90;;;;;;6136396;23;19905;-78
2021/11/06 14:01:19;;;;;;;;;;;13.90;99.90;;;;;;6132027;23;19992;-78
2021/11/06 14:03:47;;;;;;;;;;;13.80;99.90;;;;;;6136028;23;19912;-77
2021/11/06 14:06:13;;;;;;;;;;;13.90;99.90;;;;;;6134647;23;19905;-77
2021/11/06 14:08:39;;;;;;;;;;;13.80;99.90;;;;;;6140711;23;19967;-78
2021/11/06 14:11:04;;;;;;;;;;;13.80;99.90;;;;;;6134079;23;19953;-77
2021/11/06 14:13:31;;;;;;;;;;;13.70;99.90;;;;;;6128853;23;19983;-77
2021/11/06 14:15:57;;;;;;;;;;;13.70;99.90;;;;;;6129058;23;19905;-77
2021/11/06 14:18:24;;;;;;;;;;;13.80;99.90;;;;;;6128508;23;19905;-77